Nearby METAR Reports

 

KTKI - Mckinney, Texas, USA
Distance from station: N 10mi, 16km
Updated: Sun, 17-Oct-2021 1:53pm CDT
Clear
Clear
 Wind from varies
Wind: varies 5 mph , 7 km/h
Temperature: 72°F , 22°C
Dew Point: 32°F , 0°C
Humidity: 23%
Barometer: 30.28 inHg , 1025.4 hPa
Clouds: Clear
Visibility: 10 miles , 16 km
2021/10/17 18:53 KTKI 171853Z VRB04KT 10SM CLR 22/00 A3028 RMK AO2 SLP258 T02170000
KADS - Dallas/Addison, Texas, USA
Distance from station: WSW 13mi, 20km
Updated: Sun, 17-Oct-2021 1:47pm CDT
Clear
Clear
 Wind from calm
Wind: Calm
Temperature: 72°F , 22°C
Dew Point: 32°F , 0°C
Humidity: 23%
Barometer: 30.28 inHg , 1025.4 hPa
Clouds: Clear
Visibility: 13 miles , 21 km
2021/10/17 18:47 KADS 171847Z 00000KT 13SM SKC 22/00 A3028
 
KF46 - Rockwall, Texas, USA
Distance from station: SE 13mi, 21km
Updated: Sun, 17-Oct-2021 1:55pm CDT
Clear
Clear
 
Temperature: 72°F , 22°C
Dew Point: 41°F , 5°C
Humidity: 33%
Barometer: 30.29 inHg , 1025.7 hPa
Clouds: Clear
Visibility: 10 miles , 16 km
2021/10/17 18:55 KF46 171855Z AUTO 10SM CLR 22/05 A3029 RMK AO2 T02180048
KDAL - Dallas/Love Fld, Texas, USA
Distance from station: SW 19mi, 30km
Updated: Sun, 17-Oct-2021 1:53pm CDT
Mostly cloudy
Mostly cloudy
 Wind from ESE
Wind: ESE 7 mph , 11 km/h
Temperature: 72°F , 22°C
Dew Point: 36°F , 2°C
Humidity: 27%
Barometer: 30.27 inHg , 1025.1 hPa
Clouds: Mostly cloudy
Visibility: 10 miles , 16 km
Cloud details: Few Clouds 25000 ft
Mostly cloudy 30000 ft
2021/10/17 18:53 KDAL 171853Z 11006KT 10SM FEW250 BKN300 22/02 A3027 RMK AO2 SLP248 T02170017 $
 
KHQZ - Mesquite, Texas, USA
Distance from station: SSE 21mi, 33km
Updated: Sun, 17-Oct-2021 1:50pm CDT
Clear
Clear
 Wind from E
Wind: E 8 mph , 13 km/h
Temperature: 73°F , 23°C
Dew Point: 34°F , 1°C
Humidity: 23%
Barometer: 30.28 inHg , 1025.4 hPa
Clouds: Clear
Visibility: 10 miles , 16 km
2021/10/17 18:50 KHQZ 171850Z 09007KT 10SM CLR 23/01 A3028
KDFW - Dallas/Ft Worth, Texas, USA
Distance from station: WSW 25mi, 41km
Updated: Sun, 17-Oct-2021 1:53pm CDT
Overcast
Overcast
 Wind from varies
Wind: varies 6 mph , 9 km/h
Temperature: 72°F , 22°C
Dew Point: 36°F , 2°C
Humidity: 27%
Barometer: 30.27 inHg , 1025.1 hPa
Clouds: Overcast
Visibility: 10 miles , 16 km
Cloud details: Partly cloudy 25000 ft
Overcast 30000 ft
2021/10/17 18:53 KDFW 171853Z VRB05KT 10SM SCT250 OVC300 22/02 A3027 RMK AO2 SLP244 T02220017
 
KRBD - Dallas/Redbird, Texas, USA
Distance from station: SSW 29mi, 46km
Updated: Sun, 17-Oct-2021 1:53pm CDT
Clear
Clear
 Wind from S
Wind: S 6 mph , 9 km/h
Temperature: 72°F , 22°C
Dew Point: 34°F , 1°C
Humidity: 25%
Barometer: 30.27 inHg , 1025.1 hPa
Clouds: Clear
Visibility: 10 miles , 16 km
2021/10/17 18:53 KRBD 171853Z 19005KT 10SM CLR 22/01 A3027 RMK AO2 SLP247 T02170011
KTRL - Terrell, Texas, USA
Distance from station: SE 30mi, 48km
Updated: Sun, 17-Oct-2021 1:53pm CDT
Clear
Clear
 Wind from NE
Wind: NE 6 mph , 9 km/h
Temperature: 73°F , 23°C
Dew Point: 37°F , 3°C
Humidity: 27%
Barometer: 30.27 inHg , 1025.1 hPa
Clouds: Clear
Visibility: 10 miles , 16 km
2021/10/17 18:53 KTRL 171853Z AUTO 04005KT 10SM CLR 23/03 A3027 RMK AO2 SLP248 T02280028
 
KGVT - Greenville/Major, Texas, USA
Distance from station: E 32mi, 51km
Updated: Sun, 17-Oct-2021 1:55pm CDT
Clear
Clear
 Wind from SE
Wind: SE 7 mph , 11 km/h
Temperature: 72°F , 22°C
Dew Point: 37°F , 3°C
Humidity: 29%
Barometer: 30.28 inHg , 1025.4 hPa
Clouds: Clear
Visibility: 10 miles , 16 km
2021/10/17 18:55 KGVT 171855Z AUTO 13006KT 10SM CLR 22/03 A3028 RMK AO2 TSNO T02240034
KLNC - Lancaster, Texas, USA
Distance from station: S 32mi, 52km
Updated: Sun, 17-Oct-2021 1:55pm CDT
Haze, Clear
Haze, Clear
 Wind from calm
Wind: Calm
Temperature: 72°F , 22°C
Dew Point: 37°F , 3°C
Humidity: 29%
Barometer: 30.29 inHg , 1025.7 hPa
Summary: Haze
Clouds: Clear
Visibility: 4 miles , 6 km
2021/10/17 18:55 KLNC 171855Z AUTO 00000KT 4SM HZ CLR 22/03 A3029 RMK AO2 T02170033
 
KGPM - Grand Prairie, Texas, USA
Distance from station: SW 34mi, 55km
Updated: Sun, 17-Oct-2021 1:50pm CDT
Clear
Clear
 Wind from ENE
Wind: ENE 5 mph , 7 km/h
Temperature: 72°F , 22°C
Dew Point: 32°F , 0°C
Humidity: 23%
Barometer: 30.29 inHg , 1025.7 hPa
Clouds: Clear
Visibility: 10 miles , 16 km
2021/10/17 18:50 KGPM 171850Z 06004KT 10SM SKC 22/00 A3029
KDTO - Denton, Texas, USA
Distance from station: WNW 36mi, 57km
Updated: Sun, 17-Oct-2021 1:53pm CDT
Clear
Clear
 Wind from SE
Wind: SE 8 mph , 13 km/h
Temperature: 72°F , 22°C
Dew Point: 36°F , 2°C
Humidity: 27%
Barometer: 30.28 inHg , 1025.4 hPa
Clouds: Clear
Visibility: 10 miles , 16 km
2021/10/17 18:53 KDTO 171853Z 14007KT 10SM CLR 22/02 A3028 RMK AO2 SLP251 T02220022 $
 
KGKY - Arlington, Texas, USA
Distance from station: SW 38mi, 61km
Updated: Sun, 17-Oct-2021 1:53pm CDT
Clear
Clear
 Wind from varies
Wind: varies 7 mph , 11 km/h
Temperature: 75°F , 24°C
Dew Point: 36°F , 2°C
Humidity: 24%
Barometer: 30.28 inHg , 1025.4 hPa
Clouds: Clear
Visibility: 10 miles , 16 km
2021/10/17 18:53 KGKY 171853Z VRB06KT 10SM CLR 24/02 A3028 RMK AO2 SLP247 T02440022
KAFW - Ft Worth/Allianc, Texas, USA
Distance from station: W 41mi, 66km
Updated: Sun, 17-Oct-2021 1:53pm CDT
Mostly cloudy
Mostly cloudy
 Wind from E
Wind: E 8 mph , 13 km/h
Temperature: 72°F , 22°C
Dew Point: 36°F , 2°C
Humidity: 27%
Barometer: 30.27 inHg , 1025.1 hPa
Clouds: Mostly cloudy
Visibility: 10 miles , 16 km
Cloud details: Mostly cloudy 25000 ft
2021/10/17 18:53 KAFW 171853Z 10007KT 10SM BKN250 22/02 A3027 RMK AO2 SLP247 T02220017
 
KJWY - Midlothian/Wax, Texas, USA
Distance from station: SSW 44mi, 71km
Updated: Sun, 17-Oct-2021 1:55pm CDT
Clear
Clear
 Wind from SE
Wind: SE 3 mph , 6 km/h
Temperature: 72°F , 22°C
Dew Point: 39°F , 4°C
Humidity: 31%
Barometer: 30.29 inHg , 1025.7 hPa
Clouds: Clear
Visibility: 10 miles , 16 km
2021/10/17 18:55 KJWY 171855Z AUTO 14003KT 10SM CLR 22/04 A3029 RMK AO2 T02150038
KFTW - Fort Worth, Texas, USA
Distance from station: WSW 46mi, 74km
Updated: Sun, 17-Oct-2021 1:53pm CDT
Clear
Clear
 Wind from SE
Wind: SE 8 mph , 13 km/h
Temperature: 72°F , 22°C
Dew Point: 32°F , 0°C
Humidity: 23%
Barometer: 30.27 inHg , 1025.1 hPa
Clouds: Clear
Visibility: 10 miles , 16 km
2021/10/17 18:53 KFTW 171853Z 13007KT 10SM CLR 22/00 A3027 RMK AO2 SLP247 T02220000
 
KGYI - Sherman/Denison, Texas, USA
Distance from station: N 47mi, 75km
Updated: Sun, 17-Oct-2021 1:50pm CDT
Clear
Clear
 Wind from calm
Wind: Calm
Temperature: 72°F , 22°C
Dew Point: 36°F , 2°C
Humidity: 27%
Barometer: 30.29 inHg , 1025.7 hPa
Clouds: Clear
Visibility: 10 miles , 16 km
2021/10/17 18:50 KGYI 171850Z 00000KT 10SM SKC 22/02 A3029
KF00 - Bonham, Texas, USA
Distance from station: NNE 47mi, 76km
Updated: Sun, 17-Oct-2021 1:55pm CDT
Clear
Clear
 Wind from SW
Wind: SW 8 mph , 13 km/h
Temperature: 73°F , 23°C
Dew Point: 37°F , 3°C
Humidity: 27%
Barometer: 30.28 inHg , 1025.4 hPa
Clouds: Clear
Visibility: 10 miles , 16 km
2021/10/17 18:55 KF00 171855Z AUTO 22007KT 10SM CLR 23/03 A3028 RMK AO2 T02290033